Time;durP1;ratioP1;P1;durP2;ratioP2;P2;SDS_P1;SDS_P2;PMS_P1;PMS_P2;Temp;Humidity;BMP_temperature;BMP_pressure;BME280_temperature;BME280_humidity;BME280_pressure;Samples;Min_cycle;Max_cycle;Signal;HPM_P1;HPM_P2
2021/11/11 00:01:39;;;;;;;17.02;6.88;;;9.60;99.90;;;;;;5096532;28;20024;-75
2021/11/11 00:04:05;;;;;;;18.88;7.95;;;9.60;99.90;;;;;;5078091;28;20024;-75
2021/11/11 00:06:31;;;;;;;26.02;8.15;;;9.60;99.90;;;;;;5076513;28;20024;-76
2021/11/11 00:08:56;;;;;;;21.40;7.63;;;9.60;99.90;;;;;;5076030;28;20028;-76
2021/11/11 00:11:22;;;;;;;22.48;7.47;;;9.60;99.90;;;;;;5075646;28;20021;-76
2021/11/11 00:13:47;;;;;;;22.63;8.57;;;9.60;99.90;;;;;;5075961;28;20393;-76
2021/11/11 00:16:13;;;;;;;24.48;8.07;;;9.60;99.90;;;;;;5075787;28;20119;-75
2021/11/11 00:18:39;;;;;;;23.00;8.52;;;9.60;99.90;;;;;;5057635;28;20036;-76
2021/11/11 00:21:06;;;;;;;20.60;8.20;;;9.60;99.90;;;;;;5075694;28;20021;-76
2021/11/11 00:23:32;;;;;;;19.90;7.10;;;9.60;99.90;;;;;;5057790;28;20028;-76
2021/11/11 00:25:57;;;;;;;17.73;6.82;;;9.60;99.90;;;;;;5057957;28;20028;-75
2021/11/11 00:28:23;;;;;;;20.42;7.15;;;9.70;99.90;;;;;;5057755;28;20059;-76
2021/11/11 00:30:49;;;;;;;30.02;7.80;;;9.60;99.90;;;;;;5075765;28;20473;-76
2021/11/11 00:33:14;;;;;;;23.70;8.95;;;9.60;99.90;;;;;;5075752;28;20031;-77
2021/11/11 00:35:40;;;;;;;23.35;7.45;;;9.60;99.90;;;;;;5075530;28;20020;-76
2021/11/11 00:38:06;;;;;;;21.50;7.43;;;9.70;99.90;;;;;;5075509;28;20082;-75
2021/11/11 00:40:32;;;;;;;24.20;7.40;;;9.60;99.90;;;;;;5057460;28;20017;-76
2021/11/11 00:42:59;;;;;;;21.15;8.13;;;9.60;99.90;;;;;;5075324;28;20031;-76
2021/11/11 00:45:25;;;;;;;22.75;8.45;;;9.60;99.90;;;;;;5064087;28;20025;-76
2021/11/11 00:47:51;;;;;;;20.55;7.32;;;9.50;99.90;;;;;;5095573;28;20031;-75
2021/11/11 00:50:21;;;;;;;21.35;7.88;;;9.50;99.90;;;;;;5095656;28;20023;-75
2021/11/11 00:52:47;;;;;;;16.88;6.90;;;9.50;99.90;;;;;;5095371;28;20062;-75
2021/11/11 00:55:12;;;;;;;22.13;8.05;;;9.60;99.90;;;;;;5077248;28;20051;-75
2021/11/11 00:57:38;;;;;;;20.13;7.13;;;9.50;99.90;;;;;;5077205;28;20020;-76
2021/11/11 01:00:10;;;;;;;24.13;7.07;;;9.50;99.90;;;;;;5095339;28;20013;-76
2021/11/11 01:02:37;;;;;;;21.00;7.78;;;9.50;99.90;;;;;;5077660;28;20024;-75
2021/11/11 01:05:03;;;;;;;21.77;7.35;;;9.50;99.90;;;;;;5095508;28;20020;-75
2021/11/11 01:07:29;;;;;;;20.33;7.70;;;9.50;99.90;;;;;;5095001;28;20085;-76
2021/11/11 01:09:55;;;;;;;17.83;6.50;;;9.50;99.90;;;;;;5076863;28;20024;-76
2021/11/11 01:12:20;;;;;;;19.75;6.53;;;9.50;99.90;;;;;;5076935;28;20156;-75
2021/11/11 01:14:46;;;;;;;15.73;6.75;;;9.50;99.90;;;;;;5094234;28;20070;-75
2021/11/11 01:17:12;;;;;;;19.58;8.27;;;9.50;99.90;;;;;;5077661;28;20028;-75
2021/11/11 01:19:38;;;;;;;21.90;7.53;;;9.50;99.90;;;;;;5074749;28;20022;-74
2021/11/11 01:22:04;;;;;;;18.05;7.25;;;9.50;99.90;;;;;;5087411;28;20050;-74
2021/11/11 01:24:30;;;;;;;19.52;7.28;;;9.50;99.90;;;;;;5093779;28;20040;-74
2021/11/11 01:26:55;;;;;;;20.05;7.88;;;9.50;99.90;;;;;;5072750;28;20016;-74
2021/11/11 01:29:22;;;;;;;21.92;8.50;;;9.40;99.90;;;;;;5056469;28;20016;-75
2021/11/11 01:31:48;;;;;;;20.55;6.75;;;9.50;99.90;;;;;;5074445;28;20052;-75
2021/11/11 01:34:13;;;;;;;19.40;7.00;;;9.50;99.90;;;;;;5056301;28;20032;-75
2021/11/11 01:36:39;;;;;;;22.83;6.68;;;9.40;99.90;;;;;;5074198;28;20031;-74
2021/11/11 01:39:06;;;;;;;21.20;7.93;;;9.50;99.90;;;;;;5093942;28;20024;-74
2021/11/11 01:41:32;;;;;;;16.67;7.38;;;9.50;99.90;;;;;;5093883;28;20115;-75
2021/11/11 01:43:58;;;;;;;21.20;6.97;;;9.50;99.90;;;;;;5075688;28;20520;-75
2021/11/11 01:46:23;;;;;;;20.13;7.28;;;9.50;99.90;;;;;;5074049;28;20032;-74
2021/11/11 01:48:49;;;;;;;24.25;8.60;;;9.50;99.90;;;;;;5056476;28;20081;-74
2021/11/11 01:51:16;;;;;;;24.48;7.80;;;9.40;99.90;;;;;;5057503;28;20047;-76
2021/11/11 01:53:42;;;;;;;17.63;7.40;;;9.40;99.90;;;;;;5070071;28;20077;-76
2021/11/11 01:56:07;;;;;;;22.80;7.05;;;9.50;99.90;;;;;;5074370;28;20095;-76
2021/11/11 01:58:33;;;;;;;18.75;8.10;;;9.40;99.90;;;;;;5073909;28;20558;-76
2021/11/11 02:00:59;;;;;;;20.05;7.47;;;9.40;99.90;;;;;;5055901;28;20031;-76
2021/11/11 02:03:25;;;;;;;18.98;7.30;;;9.50;99.90;;;;;;5056290;28;20503;-75
2021/11/11 02:05:51;;;;;;;16.40;7.22;;;9.40;99.90;;;;;;5075335;28;20028;-76
2021/11/11 02:08:17;;;;;;;25.65;7.60;;;9.50;99.90;;;;;;5073881;28;20068;-75
2021/11/11 02:10:43;;;;;;;21.25;6.75;;;9.50;99.90;;;;;;5073859;28;20028;-76
2021/11/11 02:13:10;;;;;;;21.65;8.35;;;9.50;99.90;;;;;;5055456;28;20070;-76
2021/11/11 02:15:36;;;;;;;24.13;7.72;;;9.50;99.90;;;;;;5074357;28;20024;-76
2021/11/11 02:18:07;;;;;;;18.73;6.28;;;9.40;99.90;;;;;;5073803;28;20055;-76
2021/11/11 02:20:36;;;;;;;17.45;7.07;;;9.40;99.90;;;;;;5073909;28;20028;-75
2021/11/11 02:23:04;;;;;;;22.58;7.15;;;9.40;99.90;;;;;;5073961;28;20384;-75
2021/11/11 02:25:29;;;;;;;18.50;6.97;;;9.40;99.90;;;;;;5062080;28;20078;-76
2021/11/11 02:28:00;;;;;;;24.85;7.40;;;9.40;99.90;;;;;;5055784;28;20029;-76
2021/11/11 02:30:28;;;;;;;19.63;7.53;;;9.30;99.90;;;;;;5055746;28;20032;-76
2021/11/11 02:32:54;;;;;;;17.52;6.85;;;9.40;99.90;;;;;;5056543;28;20091;-75
2021/11/11 02:35:20;;;;;;;17.95;6.65;;;9.40;99.90;;;;;;5068515;28;20040;-75
2021/11/11 02:37:46;;;;;;;25.23;7.70;;;9.40;99.90;;;;;;5075127;28;20103;-76
2021/11/11 02:40:18;;;;;;;19.00;6.78;;;9.40;99.90;;;;;;5093869;28;20027;-76
2021/11/11 02:42:45;;;;;;;19.13;7.10;;;9.40;99.90;;;;;;5094019;28;20392;-76
2021/11/11 02:45:13;;;;;;;21.02;8.05;;;9.40;99.90;;;;;;5081601;28;20033;-76
2021/11/11 02:47:39;;;;;;;21.65;7.32;;;9.40;99.90;;;;;;5073614;28;20025;-76
2021/11/11 02:50:07;;;;;;;16.00;6.65;;;9.40;99.90;;;;;;5055608;28;20427;-76
2021/11/11 02:52:33;;;;;;;25.88;7.43;;;9.40;99.90;;;;;;5074470;28;20033;-76
2021/11/11 02:54:59;;;;;;;19.88;8.25;;;9.40;99.90;;;;;;5055771;28;20017;-76
2021/11/11 02:57:34;;;;;;;23.17;7.60;;;9.30;99.90;;;;;;5073130;28;20488;-76
2021/11/11 03:00:12;;;;;;;25.30;8.48;;;9.40;99.90;;;;;;5073131;28;20548;-77
2021/11/11 03:02:40;;;;;;;23.95;7.72;;;9.30;99.90;;;;;;5069091;28;20028;-76
2021/11/11 03:05:07;;;;;;;23.73;7.55;;;9.40;99.90;;;;;;5084432;28;20078;-77
2021/11/11 03:07:33;;;;;;;28.88;7.70;;;9.40;99.90;;;;;;5092682;28;20042;-77
2021/11/11 03:09:59;;;;;;;18.85;7.18;;;9.40;99.90;;;;;;5081008;28;20028;-77
2021/11/11 03:12:25;;;;;;;18.92;7.43;;;9.40;99.90;;;;;;5066785;28;20500;-77
2021/11/11 03:14:53;;;;;;;22.40;7.72;;;9.40;99.90;;;;;;5093268;28;20070;-76
2021/11/11 03:17:18;;;;;;;30.00;8.30;;;9.40;99.90;;;;;;5075074;28;20056;-76
2021/11/11 03:19:46;;;;;;;24.42;7.43;;;9.40;99.90;;;;;;5093520;28;20110;-75
2021/11/11 03:22:15;;;;;;;20.58;7.80;;;9.40;99.90;;;;;;5093715;28;20020;-76
2021/11/11 03:24:41;;;;;;;21.10;8.38;;;9.40;99.90;;;;;;5061995;28;20027;-75
2021/11/11 03:27:08;;;;;;;24.30;9.15;;;9.40;99.90;;;;;;5058476;28;20028;-76
2021/11/11 03:29:36;;;;;;;24.02;8.50;;;9.40;99.90;;;;;;5076814;28;20509;-75
2021/11/11 03:32:02;;;;;;;21.05;7.88;;;9.40;99.90;;;;;;5090478;28;20415;-75
2021/11/11 03:34:28;;;;;;;20.98;7.25;;;9.30;99.90;;;;;;5096830;28;20469;-75
2021/11/11 03:36:55;;;;;;;21.60;7.78;;;9.40;99.90;;;;;;5058409;28;20028;-75
2021/11/11 03:39:22;;;;;;;17.98;7.18;;;9.40;99.90;;;;;;5076578;28;20025;-75
2021/11/11 03:41:49;;;;;;;22.83;8.00;;;9.40;99.90;;;;;;5076586;28;20020;-76
2021/11/11 03:44:16;;;;;;;20.38;7.93;;;9.30;99.90;;;;;;5058557;28;20115;-76
2021/11/11 03:46:47;;;;;;;23.08;7.88;;;9.30;99.90;;;;;;5074902;28;20035;-76
2021/11/11 03:49:14;;;;;;;27.95;8.00;;;9.30;99.90;;;;;;5096624;28;20034;-75
2021/11/11 03:51:41;;;;;;;23.05;8.45;;;9.30;99.90;;;;;;5096521;28;20024;-75
2021/11/11 03:54:06;;;;;;;22.90;7.82;;;9.30;99.90;;;;;;5078669;28;20055;-75
2021/11/11 03:56:34;;;;;;;18.30;7.32;;;9.30;99.90;;;;;;5096432;28;20020;-75
2021/11/11 03:59:00;;;;;;;25.10;7.22;;;9.30;99.90;;;;;;5096471;28;20023;-75
2021/11/11 04:01:26;;;;;;;25.52;8.23;;;9.20;99.90;;;;;;5096432;28;20111;-75
2021/11/11 04:03:52;;;;;;;22.35;8.65;;;9.20;99.90;;;;;;5078821;28;20039;-76
2021/11/11 04:06:18;;;;;;;23.10;7.43;;;9.20;99.90;;;;;;5096575;28;20055;-75
2021/11/11 04:08:44;;;;;;;29.80;9.23;;;9.20;99.90;;;;;;5096123;28;20051;-75
2021/11/11 04:11:09;;;;;;;24.13;7.93;;;9.20;99.90;;;;;;5077869;28;20028;-75
2021/11/11 04:13:36;;;;;;;23.15;8.02;;;9.20;99.90;;;;;;5095943;28;20044;-75
2021/11/11 04:16:02;;;;;;;21.85;8.30;;;9.20;99.90;;;;;;5078584;28;20395;-75
2021/11/11 04:18:28;;;;;;;27.02;9.38;;;9.20;99.90;;;;;;5096732;28;20020;-75
2021/11/11 04:20:54;;;;;;;24.98;8.45;;;9.20;99.90;;;;;;5078212;28;20035;-75
2021/11/11 04:23:22;;;;;;;20.73;7.78;;;9.20;99.90;;;;;;5095961;28;20027;-75
2021/11/11 04:26:01;;;;;;;27.95;10.15;;;9.20;99.90;;;;;;5077891;28;20024;-75
2021/11/11 04:30:57;;;;;;;27.75;8.10;;;9.10;99.90;;;;;;5096466;28;20106;-75
2021/11/11 04:33:22;;;;;;;23.10;7.85;;;9.10;99.90;;;;;;5096012;28;20028;-76
2021/11/11 04:35:53;;;;;;;24.65;9.13;;;9.10;99.90;;;;;;5097223;28;20056;-76
2021/11/11 04:51:44;;;;;;;22.75;8.80;;;9.20;99.90;;;;;;5096364;28;20031;-76
2021/11/11 04:59:53;;;;;;;26.95;9.73;;;9.20;99.90;;;;;;5095541;28;20027;-75
2021/11/11 05:02:40;;;;;;;26.65;9.52;;;9.10;99.90;;;;;;5095893;28;20028;-75
2021/11/11 05:05:07;;;;;;;24.75;9.32;;;9.20;99.90;;;;;;5077099;28;20468;-75
2021/11/11 05:07:32;;;;;;;27.60;8.60;;;9.20;99.90;;;;;;5076975;28;20035;-75
2021/11/11 05:09:58;;;;;;;26.33;8.88;;;9.10;99.90;;;;;;5094861;28;20484;-75
2021/11/11 05:12:24;;;;;;;23.02;9.68;;;9.10;99.90;;;;;;5094938;28;20104;-75
2021/11/11 05:14:50;;;;;;;25.17;10.60;;;9.10;99.90;;;;;;5060789;28;20015;-75
2021/11/11 05:17:22;;;;;;;32.03;10.50;;;9.10;99.90;;;;;;5080727;28;20017;-76
2021/11/11 05:19:48;;;;;;;23.10;9.02;;;9.10;99.90;;;;;;5056817;28;20028;-76
2021/11/11 05:22:13;;;;;;;26.10;9.70;;;9.10;99.90;;;;;;5074662;28;20052;-76
2021/11/11 05:24:39;;;;;;;25.55;10.30;;;9.10;99.90;;;;;;5057202;28;20036;-76
2021/11/11 05:27:05;;;;;;;25.38;10.00;;;9.10;99.90;;;;;;5074132;28;20116;-75
2021/11/11 05:29:32;;;;;;;28.67;10.32;;;9.10;99.90;;;;;;5079038;28;20401;-76
2021/11/11 05:31:57;;;;;;;22.45;10.35;;;9.00;99.90;;;;;;5073908;28;20020;-76
2021/11/11 05:34:23;;;;;;;30.15;11.38;;;9.10;99.90;;;;;;5073987;28;20028;-76
2021/11/11 05:36:49;;;;;;;29.30;10.45;;;9.00;99.90;;;;;;5082771;28;20024;-76
2021/11/11 05:39:14;;;;;;;32.53;10.27;;;9.00;99.90;;;;;;5061068;28;20017;-77
2021/11/11 05:41:40;;;;;;;28.60;10.00;;;9.10;99.90;;;;;;5056477;28;20497;-76
2021/11/11 05:44:07;;;;;;;32.03;11.48;;;9.00;99.90;;;;;;5073922;28;20025;-75
2021/11/11 05:46:32;;;;;;;29.13;10.27;;;9.00;99.90;;;;;;5073294;28;20025;-74
2021/11/11 05:48:58;;;;;;;30.00;11.13;;;9.00;99.90;;;;;;5074277;28;20024;-74
2021/11/11 05:51:23;;;;;;;26.95;10.07;;;9.00;99.90;;;;;;5074022;28;20021;-74
2021/11/11 05:53:49;;;;;;;32.25;11.57;;;9.00;99.90;;;;;;5082186;28;20050;-74
2021/11/11 05:56:14;;;;;;;25.50;10.82;;;9.10;99.90;;;;;;5090678;28;20017;-74
2021/11/11 05:58:40;;;;;;;28.52;10.25;;;9.10;99.90;;;;;;5073830;28;20096;-74
2021/11/11 06:01:06;;;;;;;23.80;10.50;;;9.10;99.90;;;;;;5074138;28;20016;-74
2021/11/11 06:03:32;;;;;;;28.70;11.60;;;9.10;99.90;;;;;;5055935;28;20029;-74
2021/11/11 06:05:58;;;;;;;25.77;11.27;;;9.10;99.90;;;;;;5074557;28;20496;-75
2021/11/11 06:08:24;;;;;;;29.67;11.45;;;9.10;99.90;;;;;;5094034;28;20099;-74
2021/11/11 06:10:50;;;;;;;30.98;12.00;;;9.10;99.90;;;;;;5093587;28;20181;-78
2021/11/11 06:13:15;;;;;;;27.13;11.00;;;9.20;99.90;;;;;;5075900;28;20035;-75
2021/11/11 06:15:41;;;;;;;29.45;11.15;;;9.10;99.90;;;;;;5090310;28;20024;-75
2021/11/11 06:18:09;;;;;;;32.17;12.35;;;9.10;99.90;;;;;;5055910;28;20098;-75
2021/11/11 06:20:42;;;;;;;27.90;11.35;;;9.10;99.90;;;;;;5055699;28;20098;-75
2021/11/11 06:23:08;;;;;;;30.55;10.98;;;9.10;99.90;;;;;;5056011;28;20029;-75
2021/11/11 06:25:34;;;;;;;23.95;10.02;;;9.10;99.90;;;;;;5055942;28;20480;-75
2021/11/11 06:28:01;;;;;;;32.00;10.77;;;9.10;99.90;;;;;;5091074;28;20039;-75
2021/11/11 06:30:28;;;;;;;27.70;11.43;;;9.00;99.90;;;;;;5093991;28;20032;-75
2021/11/11 06:32:53;;;;;;;30.38;11.38;;;9.00;99.90;;;;;;5093374;28;20095;-75
2021/11/11 06:35:19;;;;;;;33.10;10.98;;;9.00;99.90;;;;;;5080821;28;20504;-76
2021/11/11 06:37:45;;;;;;;36.63;11.93;;;9.00;99.90;;;;;;5087598;28;20477;-75
2021/11/11 06:40:11;;;;;;;28.63;9.70;;;9.00;99.90;;;;;;5075808;28;20013;-75
2021/11/11 06:42:39;;;;;;;33.40;10.77;;;9.00;99.90;;;;;;5093785;28;20635;-75
2021/11/11 06:45:12;;;;;;;28.92;9.43;;;10.00;99.90;;;;;;5094378;28;20036;-74
2021/11/11 06:47:40;;;;;;;29.27;10.27;;;9.00;99.90;;;;;;5076099;28;20089;-74
2021/11/11 06:50:07;;;;;;;27.23;10.65;;;9.00;99.90;;;;;;5075813;28;20036;-74
2021/11/11 06:52:33;;;;;;;29.15;9.65;;;9.00;99.90;;;;;;5075381;28;20127;-76
2021/11/11 06:54:58;;;;;;;27.40;10.13;;;9.00;99.90;;;;;;5076615;28;20064;-74
2021/11/11 06:57:24;;;;;;;28.52;11.23;;;9.00;99.90;;;;;;5074143;28;20028;-75
2021/11/11 06:59:49;;;;;;;28.70;9.40;;;9.00;99.90;;;;;;5080707;28;20091;-75
2021/11/11 07:02:15;;;;;;;26.63;9.98;;;9.00;99.90;;;;;;5092655;28;20028;-74
2021/11/11 07:04:41;;;;;;;34.63;10.18;;;9.00;99.90;;;;;;5077866;28;20028;-74
2021/11/11 07:07:09;;;;;;;26.17;10.38;;;9.00;99.90;;;;;;5077664;28;20060;-74
2021/11/11 07:09:35;;;;;;;29.38;9.43;;;9.00;99.90;;;;;;5077357;28;20028;-79
2021/11/11 07:12:07;;;;;;;33.85;10.18;;;9.10;99.90;;;;;;5077583;28;20039;-77
2021/11/11 07:14:32;;;;;;;26.33;10.57;;;8.90;99.90;;;;;;5077695;28;20109;-77
2021/11/11 07:16:58;;;;;;;34.65;10.52;;;9.10;99.90;;;;;;5077713;28;20024;-78
2021/11/11 07:19:27;;;;;;;28.55;9.82;;;9.10;99.90;;;;;;5078659;28;20424;-76
2021/11/11 07:21:52;;;;;;;28.85;9.48;;;9.10;99.90;;;;;;5082488;28;20024;-76
2021/11/11 07:24:18;;;;;;;25.48;9.93;;;9.20;99.90;;;;;;5078960;28;20024;-77
2021/11/11 07:26:46;;;;;;;34.40;10.02;;;9.10;99.90;;;;;;5079331;28;20052;-77
2021/11/11 07:29:15;;;;;;;30.95;11.43;;;9.20;99.90;;;;;;5097406;28;20034;-77
2021/11/11 07:31:40;;;;;;;28.02;9.98;;;9.20;99.90;;;;;;5075678;28;20487;-77
2021/11/11 07:34:06;;;;;;;30.50;9.95;;;9.20;99.90;;;;;;5059390;28;20071;-77
2021/11/11 07:36:37;;;;;;;29.35;10.27;;;9.30;99.90;;;;;;5077703;28;20032;-76
2021/11/11 07:39:03;;;;;;;29.27;9.63;;;9.30;99.90;;;;;;5058737;28;20385;-76
2021/11/11 07:41:32;;;;;;;23.30;10.10;;;9.30;99.90;;;;;;5059009;28;20018;-76
2021/11/11 07:43:58;;;;;;;30.10;10.23;;;9.30;99.90;;;;;;5077280;28;20017;-76
2021/11/11 07:46:24;;;;;;;28.33;10.38;;;9.30;99.90;;;;;;5086530;28;20488;-77
2021/11/11 07:48:49;;;;;;;25.00;9.40;;;9.40;99.90;;;;;;5096991;28;20023;-77
2021/11/11 07:51:15;;;;;;;29.83;10.60;;;9.40;99.90;;;;;;5079074;28;20020;-77
2021/11/11 07:53:41;;;;;;;27.00;8.60;;;9.40;99.90;;;;;;5096629;28;20028;-77
2021/11/11 07:56:06;;;;;;;31.50;10.90;;;9.40;99.90;;;;;;5097121;28;20024;-77
2021/11/11 07:58:34;;;;;;;31.17;10.23;;;9.50;99.90;;;;;;5097034;28;20374;-75
2021/11/11 08:01:00;;;;;;;21.23;8.70;;;9.50;99.90;;;;;;5077690;28;20541;-76
2021/11/11 08:03:26;;;;;;;32.55;10.13;;;9.50;99.90;;;;;;5076243;28;20024;-74
2021/11/11 08:05:51;;;;;;;26.33;9.65;;;9.60;99.90;;;;;;5076715;28;20093;-74
2021/11/11 08:08:17;;;;;;;29.70;10.02;;;9.50;99.90;;;;;;5076155;28;20098;-74
2021/11/11 08:10:42;;;;;;;29.98;10.05;;;9.60;99.90;;;;;;5076365;28;20033;-74
2021/11/11 08:13:08;;;;;;;34.33;8.77;;;9.60;99.90;;;;;;5076084;28;20025;-74
2021/11/11 08:15:34;;;;;;;29.80;10.30;;;9.50;99.90;;;;;;5076253;28;20023;-74
2021/11/11 08:18:03;;;;;;;21.67;8.90;;;9.60;99.90;;;;;;5091772;28;20481;-74
2021/11/11 08:20:28;;;;;;;;;;;9.50;99.90;;;;;;5096624;28;20050;-74
2021/11/11 08:22:57;;;;;;;20.83;8.75;;;9.60;99.90;;;;;;5096235;28;19911;-74
2021/11/11 08:25:22;;;;;;;25.38;9.23;;;9.60;99.90;;;;;;5078042;28;20028;-74
2021/11/11 08:27:49;;;;;;;20.58;8.88;;;9.60;99.90;;;;;;5093292;28;20115;-74
2021/11/11 08:30:17;;;;;;;27.80;9.88;;;9.60;99.90;;;;;;5075489;28;20020;-74
2021/11/11 08:32:45;;;;;;;28.10;10.65;;;9.60;99.90;;;;;;5077256;28;20028;-76
2021/11/11 08:35:13;;;;;;;32.10;10.00;;;9.70;99.90;;;;;;5090069;28;20457;-76
2021/11/11 08:37:40;;;;;;;27.33;10.88;;;9.60;99.90;;;;;;5075849;28;20025;-75
2021/11/11 08:40:07;;;;;;;26.25;10.18;;;9.60;99.90;;;;;;5088981;28;20047;-76
2021/11/11 08:42:33;;;;;;;25.67;9.43;;;9.70;99.90;;;;;;5098008;28;20432;-76
2021/11/11 08:45:00;;;;;;;24.73;10.52;;;9.70;99.90;;;;;;5093343;28;20024;-76
2021/11/11 08:47:25;;;;;;;33.22;11.02;;;9.70;99.90;;;;;;5092518;28;20031;-76
2021/11/11 08:49:53;;;;;;;24.83;9.27;;;9.70;99.90;;;;;;5098058;28;20030;-75
2021/11/11 08:52:20;;;;;;;25.98;10.77;;;9.80;99.90;;;;;;5116046;28;20024;-75
2021/11/11 08:54:47;;;;;;;27.92;9.63;;;9.80;99.90;;;;;;5094913;28;20016;-76
2021/11/11 08:57:13;;;;;;;27.73;9.73;;;9.90;99.90;;;;;;5074925;28;20029;-76
2021/11/11 08:59:39;;;;;;;28.90;10.25;;;9.90;99.90;;;;;;5075590;28;20023;-76
2021/11/11 09:02:05;;;;;;;32.78;11.43;;;9.90;99.90;;;;;;5081629;28;20024;-76
2021/11/11 09:04:31;;;;;;;27.65;9.60;;;9.90;99.90;;;;;;5095696;28;20028;-76
2021/11/11 09:06:59;;;;;;;36.20;10.57;;;10.00;99.90;;;;;;5095697;28;20028;-76
2021/11/11 09:09:24;;;;;;;31.57;10.50;;;10.00;99.90;;;;;;5095233;28;20022;-76
2021/11/11 09:11:50;;;;;;;28.83;10.23;;;10.00;99.90;;;;;;5061161;28;20112;-76
2021/11/11 09:14:16;;;;;;;25.98;10.48;;;10.10;99.90;;;;;;5087637;28;20391;-76
2021/11/11 09:16:42;;;;;;;37.80;10.80;;;10.10;99.90;;;;;;5075506;28;20016;-76
2021/11/11 09:19:08;;;;;;;30.33;10.60;;;10.20;99.90;;;;;;5094947;28;20023;-76
2021/11/11 09:21:34;;;;;;;31.00;10.45;;;10.20;99.90;;;;;;5056465;28;20031;-76
2021/11/11 09:24:00;;;;;;;33.45;9.77;;;10.20;99.90;;;;;;5063996;28;20034;-76
2021/11/11 09:26:27;;;;;;;28.10;10.75;;;10.20;99.90;;;;;;5076677;28;20024;-76
2021/11/11 09:28:53;;;;;;;28.05;10.63;;;10.30;99.90;;;;;;5075711;28;20514;-75
2021/11/11 09:31:20;;;;;;;27.95;10.93;;;10.30;99.90;;;;;;5091767;28;20388;-76
2021/11/11 09:33:47;;;;;;;29.63;10.95;;;10.30;99.90;;;;;;5079017;28;20016;-76
2021/11/11 09:36:14;;;;;;;28.30;9.27;;;10.30;99.90;;;;;;5094851;28;20019;-76
2021/11/11 09:38:41;;;;;;;32.30;10.07;;;10.30;99.90;;;;;;5062840;28;20107;-76
2021/11/11 09:41:07;;;;;;;27.95;10.35;;;10.40;99.90;;;;;;5094221;28;20027;-76
2021/11/11 09:43:35;;;;;;;37.28;11.15;;;10.40;99.90;;;;;;5094410;28;20024;-76
2021/11/11 09:46:01;;;;;;;31.20;10.80;;;10.50;99.90;;;;;;5086509;28;20036;-76
2021/11/11 09:48:27;;;;;;;27.13;10.45;;;10.50;99.90;;;;;;5074761;28;20388;-76
2021/11/11 09:50:54;;;;;;;30.05;11.00;;;10.60;99.90;;;;;;5057285;28;20077;-76
2021/11/11 09:53:23;;;;;;;33.83;11.18;;;10.60;99.90;;;;;;5073705;28;20024;-76
2021/11/11 09:58:35;;;;;;;32.60;11.05;;;10.70;99.90;;;;;;5074734;28;20047;-77
2021/11/11 10:01:09;;;;;;;35.67;11.52;;;10.70;99.90;;;;;;5074571;28;20539;-77
2021/11/11 10:03:41;;;;;;;32.45;10.88;;;10.70;99.90;;;;;;5055925;28;20040;-77
2021/11/11 10:06:07;;;;;;;29.33;11.82;;;10.80;99.90;;;;;;5057348;28;20493;-77
2021/11/11 10:08:42;;;;;;;30.63;12.23;;;10.70;99.90;;;;;;5056663;28;20026;-78
2021/11/11 10:11:34;;;;;;;29.60;11.98;;;10.80;99.90;;;;;;5071583;28;20047;-77
2021/11/11 10:14:14;;;;;;;32.22;11.88;;;10.80;99.90;;;;;;5076150;28;20032;-78
2021/11/11 10:17:01;;;;;;;42.50;11.98;;;10.80;99.90;;;;;;5076116;28;20538;-77
2021/11/11 10:19:29;;;;;;;29.30;10.20;;;10.90;99.90;;;;;;5075793;28;20472;-78
2021/11/11 10:22:06;;;;;;;32.72;11.13;;;10.90;99.90;;;;;;5094231;28;20442;-77
2021/11/11 10:24:49;;;;;;;33.20;12.15;;;10.90;99.90;;;;;;5091632;28;20028;-77
2021/11/11 10:27:29;;;;;;;38.58;11.80;;;11.00;99.90;;;;;;5093757;28;20031;-78
2021/11/11 10:30:07;;;;;;;45.15;12.85;;;11.00;99.90;;;;;;5083648;28;20433;-78
2021/11/11 10:32:34;;;;;;;33.10;11.20;;;11.00;99.90;;;;;;5073898;28;20061;-78
2021/11/11 10:35:10;;;;;;;35.00;12.30;;;11.10;99.90;;;;;;5086394;28;20022;-78
2021/11/11 10:37:49;;;;;;;32.33;12.02;;;11.10;99.90;;;;;;5079016;28;20032;-78
2021/11/11 10:40:27;;;;;;;38.72;11.60;;;11.20;99.90;;;;;;5083183;28;20020;-78
2021/11/11 10:42:54;;;;;;;32.55;11.80;;;11.30;99.90;;;;;;5093994;28;20032;-77
2021/11/11 10:45:23;;;;;;;41.10;14.02;;;11.30;99.90;;;;;;5091015;28;20027;-77
2021/11/11 10:47:54;;;;;;;27.92;11.00;;;11.40;99.90;;;;;;5084718;28;20429;-78
2021/11/11 10:50:46;;;;;;;38.70;13.30;;;11.50;99.90;;;;;;5070465;28;20047;-77
2021/11/11 10:53:14;;;;;;;36.00;13.18;;;11.50;99.90;;;;;;5073952;28;20032;-78
2021/11/11 10:55:42;;;;;;;40.03;12.82;;;11.50;99.90;;;;;;5056143;28;20027;-77
2021/11/11 10:58:15;;;;;;;37.72;12.32;;;11.50;99.90;;;;;;5073529;28;20410;-78
2021/11/11 11:01:08;;;;;;;33.30;12.95;;;11.60;99.90;;;;;;5070654;28;20026;-78
2021/11/11 11:03:39;;;;;;;32.92;12.02;;;11.60;99.90;;;;;;5082985;28;20060;-78
2021/11/11 11:06:13;;;;;;;33.60;12.82;;;11.60;99.90;;;;;;5073156;28;20417;-78
2021/11/11 11:08:58;;;;;;;28.95;11.63;;;11.70;99.90;;;;;;5071350;28;20036;-78
2021/11/11 11:11:24;;;;;;;37.95;12.95;;;11.80;99.90;;;;;;5093479;28;20425;-78
2021/11/11 11:13:58;;;;;;;32.58;12.68;;;11.80;99.90;;;;;;5093335;28;20024;-78
2021/11/11 11:16:27;;;;;;;30.65;12.60;;;11.80;99.90;;;;;;5082993;28;20048;-78
2021/11/11 11:19:02;;;;;;;33.40;12.15;;;11.80;99.90;;;;;;5088561;28;20024;-78
2021/11/11 11:21:33;;;;;;;42.05;13.45;;;11.80;99.90;;;;;;5091828;28;20081;-78
2021/11/11 11:24:06;;;;;;;30.27;12.18;;;11.80;99.90;;;;;;5073437;28;20043;-78
2021/11/11 11:26:36;;;;;;;33.33;13.50;;;11.90;99.90;;;;;;5056396;28;20017;-78
2021/11/11 11:29:16;;;;;;;32.63;11.70;;;11.80;99.90;;;;;;5077434;28;20052;-78
2021/11/11 11:31:48;;;;;;;30.58;12.65;;;11.80;99.90;;;;;;5092176;28;20055;-78
2021/11/11 11:34:19;;;;;;;32.47;13.40;;;11.90;99.90;;;;;;5074821;28;20024;-78
2021/11/11 11:36:51;;;;;;;30.33;12.80;;;11.90;99.90;;;;;;5092867;28;20016;-78
2021/11/11 11:39:26;;;;;;;37.97;12.90;;;11.80;99.90;;;;;;5054913;28;20017;-78
2021/11/11 11:41:53;;;;;;;30.88;12.10;;;11.80;99.90;;;;;;5074707;28;20020;-78
2021/11/11 11:44:37;;;;;;;33.30;13.52;;;11.80;99.90;;;;;;5074632;28;20016;-75
2021/11/11 11:47:46;;;;;;;56.70;16.25;;;11.80;99.90;;;;;;5090492;28;20100;-74
2021/11/11 11:50:25;;;;;;;40.45;14.40;;;11.80;99.90;;;;;;5057851;28;20025;-74
2021/11/11 11:53:00;;;;;;;33.78;12.95;;;11.80;99.90;;;;;;5058018;28;20052;-74
2021/11/11 11:55:34;;;;;;;36.72;15.45;;;11.70;99.90;;;;;;5075821;28;20021;-74
2021/11/11 11:58:09;;;;;;;34.42;13.63;;;11.80;99.90;;;;;;5076194;28;20021;-74
2021/11/11 12:09:53;;;;;;;36.58;14.00;;;11.80;99.90;;;;;;4971835;28;20459;-74
2021/11/11 12:12:36;;;;;;;34.85;12.57;;;11.90;99.90;;;;;;4993466;28;20494;-74
2021/11/11 12:40:36;;;;;;;35.22;14.45;;;11.70;99.90;;;;;;5075453;28;20449;-76
2021/11/11 12:43:20;;;;;;;34.83;15.15;;;11.70;99.90;;;;;;5095755;28;20056;-75
2021/11/11 12:45:47;;;;;;;35.35;13.80;;;11.80;99.90;;;;;;5095152;28;20042;-75
2021/11/11 12:48:15;;;;;;;38.35;14.05;;;13.00;99.90;;;;;;5076910;28;20524;-76
2021/11/11 12:50:49;;;;;;;34.80;15.48;;;11.70;99.90;;;;;;5076806;28;20028;-76
2021/11/11 12:53:15;;;;;;;32.83;14.35;;;11.60;99.90;;;;;;5095451;28;20024;-76
2021/11/11 12:55:43;;;;;;;33.15;14.88;;;11.70;99.90;;;;;;5094678;28;20026;-76
2021/11/11 12:58:12;;;;;;;30.48;13.35;;;11.60;99.90;;;;;;5076622;28;20393;-76
2021/11/11 13:00:45;;;;;;;31.02;12.30;;;11.70;99.90;;;;;;5076383;28;20017;-75
2021/11/11 13:03:11;;;;;;;26.42;11.93;;;11.70;99.90;;;;;;5076702;28;20495;-76
2021/11/11 13:05:56;;;;;;;28.33;12.82;;;11.70;99.90;;;;;;5094786;28;20058;-76
2021/11/11 13:08:50;;;;;;;29.67;13.30;;;11.70;99.90;;;;;;5076435;28;20073;-76
2021/11/11 13:11:34;;;;;;;32.60;12.35;;;11.70;99.90;;;;;;5076504;28;20024;-76
2021/11/11 13:14:07;;;;;;;28.17;11.82;;;11.70;99.90;;;;;;5076337;28;20028;-76
2021/11/11 13:16:33;;;;;;;25.63;11.15;;;11.70;99.90;;;;;;5095150;28;20051;-76
2021/11/11 13:19:02;;;;;;;25.70;11.85;;;11.80;99.90;;;;;;5094696;28;20036;-76
2021/11/11 13:21:45;;;;;;;30.48;11.80;;;11.70;99.90;;;;;;5094490;28;20027;-76
2021/11/11 13:24:59;;;;;;;27.33;10.65;;;11.70;99.90;;;;;;5076270;28;20016;-76
2021/11/11 15:47:27;;;;;;;34.78;12.15;;;11.30;99.90;;;;;;5086123;28;20396;-76
2021/11/11 16:24:05;;;;;;;29.98;11.02;;;11.00;99.90;;;;;;5100865;28;20032;-78
2021/11/11 16:26:31;;;;;;;35.00;13.15;;;11.00;99.90;;;;;;5080265;28;20400;-78
2021/11/11 16:29:00;;;;;;;34.80;12.20;;;11.00;99.90;;;;;;5077527;28;20024;-79
2021/11/11 16:31:27;;;;;;;31.45;11.00;;;11.00;99.90;;;;;;5100496;28;20028;-78
2021/11/11 16:33:54;;;;;;;33.10;11.65;;;11.00;99.90;;;;;;5097746;28;20115;-75
2021/11/11 16:36:20;;;;;;;24.45;11.25;;;11.10;99.90;;;;;;5095485;28;20119;-76
2021/11/11 16:38:48;;;;;;;27.35;12.10;;;11.10;99.90;;;;;;5095772;28;20032;-77